Time,TemperatureF,DewpointF,PressureIn,WindDirection,WindDirectionDegrees,WindSpeedMPH,WindSpeedGustMPH,Humidity,HourlyPrecipIn,Conditions,Clouds,dailyrainin,SoftwareType,DateUTC
2013-04-25 00:03:00,32.2,23.0,30.02,SE,146,0.0,0.0,69,0.00,,,0.00,weatherlink.com 1.10,2013-04-25 07:03:00,
2013-04-25 00:18:00,31.4,23.0,30.02,SE,145,0.0,0.0,72,0.00,,,0.00,weatherlink.com 1.10,2013-04-25 07:18:00,
2013-04-25 00:33:00,31.1,24.0,30.02,SSE,149,0.0,0.0,76,0.00,,,0.00,weatherlink.com 1.10,2013-04-25 07:33:00,
2013-04-25 00:48:00,31.3,25.0,30.02,SSE,155,0.0,1.0,78,0.00,,,0.00,weatherlink.com 1.10,2013-04-25 07:48:00,
2013-04-25 01:03:00,31.1,26.0,30.02,SSE,155,0.0,1.0,80,0.00,,,0.00,weatherlink.com 1.10,2013-04-25 08:03:00,
2013-04-25 01:18:00,30.4,23.0,30.02,SSE,155,0.0,1.0,74,0.00,,,0.00,weatherlink.com 1.10,2013-04-25 08:18:00,
2013-04-25 01:33:00,29.5,23.0,30.02,SSE,155,0.0,0.0,75,0.00,,,0.00,weatherlink.com 1.10,2013-04-25 08:33:00,
2013-04-25 01:48:00,29.3,24.0,30.01,SSE,158,0.0,1.0,81,0.00,,,0.00,weatherlink.com 1.10,2013-04-25 08:48:00,
2013-04-25 02:03:00,29.1,24.0,30.00,SSE,158,0.0,0.0,81,0.00,,,0.00,weatherlink.com 1.10,2013-04-25 09:03:00,
2013-04-25 02:18:00,28.9,24.0,30.01,SSE,158,0.0,0.0,83,0.00,,,0.00,weatherlink.com 1.10,2013-04-25 09:18:00,
2013-04-25 02:33:00,29.3,24.0,30.01,SSE,158,0.0,0.0,80,0.00,,,0.00,weatherlink.com 1.10,2013-04-25 09:33:00,
2013-04-25 02:48:00,29.3,25.0,30.01,SSE,162,1.0,2.0,83,0.00,,,0.00,weatherlink.com 1.10,2013-04-25 09:48:00,
2013-04-25 03:04:00,29.6,24.0,30.01,SSE,163,0.0,4.0,79,0.00,,,0.00,weatherlink.com 1.10,2013-04-25 10:04:00,
2013-04-25 03:19:00,29.4,24.0,30.01,SSE,162,1.0,2.0,79,0.00,,,0.00,weatherlink.com 1.10,2013-04-25 10:19:00,
2013-04-25 03:34:00,29.4,23.0,30.01,South,177,0.0,2.0,77,0.00,,,0.00,weatherlink.com 1.10,2013-04-25 10:34:00,
2013-04-25 03:49:00,29.3,23.0,30.01,South,176,2.0,2.0,76,0.00,,,0.00,weatherlink.com 1.10,2013-04-25 10:49:00,
2013-04-25 04:04:00,29.1,23.0,30.01,SSE,162,0.0,2.0,78,0.00,,,0.00,weatherlink.com 1.10,2013-04-25 11:04:00,
2013-04-25 04:19:00,29.0,24.0,30.01,East,101,1.0,2.0,81,0.00,,,0.00,weatherlink.com 1.10,2013-04-25 11:19:00,
2013-04-25 04:34:00,28.8,24.0,30.01,ENE,76,1.0,2.0,83,0.00,,,0.00,weatherlink.com 1.10,2013-04-25 11:34:00,
2013-04-25 04:49:00,29.1,24.0,30.01,SE,146,1.0,4.0,80,0.00,,,0.00,weatherlink.com 1.10,2013-04-25 11:49:00,
2013-04-25 05:04:00,28.8,23.0,30.01,ESE,122,0.0,2.0,79,0.00,,,0.00,weatherlink.com 1.10,2013-04-25 12:04:00,
2013-04-25 05:19:00,28.2,22.0,30.01,ESE,121,2.0,2.0,78,0.00,,,0.00,weatherlink.com 1.10,2013-04-25 12:19:00,
2013-04-25 05:34:00,27.8,22.0,30.00,SSE,153,1.0,3.0,80,0.00,,,0.00,weatherlink.com 1.10,2013-04-25 12:34:00,
2013-04-25 05:49:00,27.7,22.0,30.01,SSE,158,0.0,4.0,78,0.00,,,0.00,weatherlink.com 1.10,2013-04-25 12:49:00,
2013-04-25 06:04:00,27.8,22.0,30.01,SSE,163,0.0,3.0,79,0.00,,,0.00,weatherlink.com 1.10,2013-04-25 13:04:00,
2013-04-25 06:19:00,27.8,21.0,30.01,SSE,160,1.0,3.0,77,0.00,,,0.00,weatherlink.com 1.10,2013-04-25 13:19:00,
2013-04-25 06:34:00,27.9,21.0,30.02,SSW,208,3.0,3.0,76,0.00,,,0.00,weatherlink.com 1.10,2013-04-25 13:34:00,
2013-04-25 06:49:00,28.0,22.0,30.02,SE,145,1.0,2.0,78,0.00,,,0.00,weatherlink.com 1.10,2013-04-25 13:49:00,
2013-04-25 07:04:00,28.6,22.0,30.02,South,176,1.0,3.0,76,0.00,,,0.00,weatherlink.com 1.10,2013-04-25 14:04:00,
2013-04-25 07:19:00,29.6,23.0,30.03,SSE,166,0.0,2.0,76,0.00,,,0.00,weatherlink.com 1.10,2013-04-25 14:19:00,
2013-04-25 07:34:00,32.0,24.0,30.03,South,174,0.0,2.0,71,0.00,,,0.00,weatherlink.com 1.10,2013-04-25 14:34:00,
2013-04-25 07:49:00,34.7,25.0,30.03,SSE,150,0.0,2.0,68,0.00,,,0.00,weatherlink.com 1.10,2013-04-25 14:49:00,
2013-04-25 08:04:00,36.7,27.0,30.03,ENE,77,2.0,3.0,68,0.00,,,0.00,weatherlink.com 1.10,2013-04-25 15:04:00,
2013-04-25 08:19:00,38.7,27.0,30.03,ESE,106,2.0,-999.0,62,-99.99,,,0.00,weatherlink.com 1.10,2013-04-25 15:19:00,
2013-04-25 08:34:00,40.4,27.0,30.03,SE,139,0.0,3.0,59,0.00,,,0.00,weatherlink.com 1.10,2013-04-25 15:34:00,
2013-04-25 08:49:00,42.5,28.0,30.03,ENE,68,1.0,3.0,57,0.00,,,0.00,weatherlink.com 1.10,2013-04-25 15:49:00,
2013-04-25 09:04:00,44.5,28.0,30.03,ENE,65,1.0,3.0,53,0.00,,,0.00,weatherlink.com 1.10,2013-04-25 16:04:00,
2013-04-25 09:20:00,46.1,29.0,30.03,East,87,1.0,4.0,51,0.00,,,0.00,weatherlink.com 1.10,2013-04-25 16:20:00,
2013-04-25 09:35:00,48.0,29.0,30.03,East,101,2.0,3.0,48,0.00,,,0.00,weatherlink.com 1.10,2013-04-25 16:35:00,
2013-04-25 09:50:00,50.1,30.0,30.03,ESE,111,0.0,4.0,46,0.00,,,0.00,weatherlink.com 1.10,2013-04-25 16:50:00,
2013-04-25 10:05:00,51.9,29.0,30.02,ESE,123,0.0,4.0,41,0.00,,,0.00,weatherlink.com 1.10,2013-04-25 17:05:00,
2013-04-25 10:20:00,53.9,29.0,30.02,East,79,2.0,4.0,38,0.00,,,0.00,weatherlink.com 1.10,2013-04-25 17:20:00,
2013-04-25 10:35:00,56.5,29.0,30.02,SE,146,1.0,3.0,35,0.00,,,0.00,weatherlink.com 1.10,2013-04-25 17:35:00,
2013-04-25 10:50:00,58.8,26.0,30.02,North,3,6.0,6.0,29,0.00,,,0.00,weatherlink.com 1.10,2013-04-25 17:50:00,
2013-04-25 11:05:00,60.3,25.0,30.02,East,85,1.0,5.0,26,0.00,,,0.00,weatherlink.com 1.10,2013-04-25 18:05:00,
2013-04-25 11:20:00,61.6,26.0,30.02,NNE,24,2.0,4.0,26,0.00,,,0.00,weatherlink.com 1.10,2013-04-25 18:20:00,
2013-04-25 11:35:00,63.0,27.0,30.02,ESE,116,0.0,3.0,25,0.00,,,0.00,weatherlink.com 1.10,2013-04-25 18:35:00,
2013-04-25 11:50:00,64.5,27.0,30.01,ENE,66,2.0,4.0,24,0.00,,,0.00,weatherlink.com 1.10,2013-04-25 18:50:00,
2013-04-25 12:05:00,65.6,29.0,30.01,SSE,165,0.0,5.0,25,0.00,,,0.00,weatherlink.com 1.10,2013-04-25 19:05:00,
2013-04-25 12:20:00,69.0,30.0,30.01,ESE,122,1.0,3.0,23,0.00,,,0.00,weatherlink.com 1.10,2013-04-25 19:20:00,
2013-04-25 12:35:00,67.4,30.0,30.01,South,173,2.0,4.0,25,0.00,,,0.00,weatherlink.com 1.10,2013-04-25 19:35:00,
2013-04-25 12:50:00,67.0,31.0,30.01,SE,139,2.0,12.0,26,0.00,,,0.00,weatherlink.com 1.10,2013-04-25 19:50:00,
2013-04-25 13:05:00,68.0,32.0,30.01,ESE,122,1.0,6.0,26,0.00,,,0.00,weatherlink.com 1.10,2013-04-25 20:05:00,
2013-04-25 13:20:00,69.6,34.0,30.01,SSE,165,0.0,4.0,27,0.00,,,0.00,weatherlink.com 1.10,2013-04-25 20:20:00,
2013-04-25 13:35:00,69.5,36.0,30.00,ESE,110,2.0,2.0,29,0.00,,,0.00,weatherlink.com 1.10,2013-04-25 20:35:00,
2013-04-25 13:50:00,70.4,33.0,30.00,SSE,156,0.0,4.0,25,0.00,,,0.00,weatherlink.com 1.10,2013-04-25 20:50:00,
2013-04-25 14:20:00,70.9,35.0,30.02,SW,220,4.0,7.0,27,0.00,,,0.00,weatherlink.com 1.10,2013-04-25 21:20:00,
2013-04-25 14:35:00,70.3,34.0,30.02,ESE,115,4.0,11.0,26,0.00,,,0.00,weatherlink.com 1.10,2013-04-25 21:35:00,
2013-04-25 14:50:00,70.6,35.0,30.02,SE,146,0.0,5.0,27,0.00,,,0.00,weatherlink.com 1.10,2013-04-25 21:50:00,
2013-04-25 15:06:00,71.2,34.0,30.03,SSE,162,1.0,4.0,26,0.00,,,0.00,weatherlink.com 1.10,2013-04-25 22:06:00,
2013-04-25 15:21:00,70.6,33.0,30.03,SE,129,1.0,7.0,25,0.00,,,0.00,weatherlink.com 1.10,2013-04-25 22:21:00,
2013-04-25 15:36:00,71.0,34.0,30.03,SW,222,3.0,7.0,26,0.00,,,0.00,weatherlink.com 1.10,2013-04-25 22:36:00,
2013-04-25 15:51:00,70.1,34.0,30.03,ESE,116,4.0,10.0,27,0.00,,,0.00,weatherlink.com 1.10,2013-04-25 22:51:00,
2013-04-25 16:06:00,70.7,34.0,30.02,SSW,208,1.0,7.0,26,0.00,,,0.00,weatherlink.com 1.10,2013-04-25 23:06:00,
2013-04-25 16:21:00,70.5,34.0,30.03,SSE,163,1.0,9.0,26,0.00,,,0.00,weatherlink.com 1.10,2013-04-25 23:21:00,
2013-04-25 16:36:00,70.0,33.0,30.03,SSW,204,1.0,4.0,26,0.00,,,0.00,weatherlink.com 1.10,2013-04-25 23:36:00,
2013-04-25 16:51:00,69.4,33.0,30.03,SE,125,1.0,7.0,26,0.00,,,0.00,weatherlink.com 1.10,2013-04-25 23:51:00,
2013-04-25 17:07:00,67.7,34.0,30.03,SSE,156,0.0,6.0,29,0.00,,,0.00,weatherlink.com 1.10,2013-04-26 00:07:00,
2013-04-25 17:21:00,67.4,32.0,30.04,ESE,122,1.0,6.0,27,0.00,,,0.00,weatherlink.com 1.10,2013-04-26 00:21:00,
2013-04-25 17:36:00,67.0,32.0,30.04,SSE,152,0.0,5.0,27,0.00,,,0.00,weatherlink.com 1.10,2013-04-26 00:36:00,
2013-04-25 17:51:00,66.5,31.0,30.04,SSW,207,2.0,4.0,27,0.00,,,0.00,weatherlink.com 1.10,2013-04-26 00:51:00,
2013-04-25 18:06:00,66.2,31.0,30.05,SSE,166,0.0,5.0,27,0.00,,,0.00,weatherlink.com 1.10,2013-04-26 01:06:00,
2013-04-25 18:21:00,65.7,33.0,30.05,SSE,160,1.0,5.0,30,0.00,,,0.00,weatherlink.com 1.10,2013-04-26 01:21:00,
2013-04-25 18:36:00,65.3,34.0,30.05,South,169,1.0,3.0,31,0.00,,,0.00,weatherlink.com 1.10,2013-04-26 01:36:00,
2013-04-25 18:51:00,64.0,34.0,30.05,SSE,154,0.0,3.0,33,0.00,,,0.00,weatherlink.com 1.10,2013-04-26 01:51:00,
2013-04-25 19:06:00,62.6,35.0,30.06,SSE,160,0.0,1.0,36,0.00,,,0.00,weatherlink.com 1.10,2013-04-26 02:06:00,
2013-04-25 19:21:00,59.9,35.0,30.06,SSE,160,0.0,0.0,40,0.00,,,0.00,weatherlink.com 1.10,2013-04-26 02:21:00,
2013-04-25 19:36:00,58.0,37.0,30.07,SSE,159,0.0,0.0,46,0.00,,,0.00,weatherlink.com 1.10,2013-04-26 02:36:00,
2013-04-25 19:51:00,56.1,36.0,30.07,SSE,159,0.0,0.0,47,0.00,,,0.00,weatherlink.com 1.10,2013-04-26 02:51:00,
2013-04-25 20:06:00,54.4,37.0,30.08,SSE,160,0.0,0.0,52,0.00,,,0.00,weatherlink.com 1.10,2013-04-26 03:06:00,
2013-04-25 20:21:00,52.8,37.0,30.09,SSE,159,0.0,0.0,56,0.00,,,0.00,weatherlink.com 1.10,2013-04-26 03:21:00,
2013-04-25 20:36:00,51.0,36.0,30.09,SSE,159,0.0,0.0,58,0.00,,,0.00,weatherlink.com 1.10,2013-04-26 03:36:00,
2013-04-25 20:51:00,49.9,36.0,30.10,SSE,160,0.0,0.0,60,0.00,,,0.00,weatherlink.com 1.10,2013-04-26 03:51:00,
2013-04-25 21:06:00,48.5,37.0,30.11,SSE,159,0.0,0.0,64,0.00,,,0.00,weatherlink.com 1.10,2013-04-26 04:06:00,
2013-04-25 21:21:00,47.4,36.0,30.11,SSE,159,0.0,0.0,66,0.00,,,0.00,weatherlink.com 1.10,2013-04-26 04:21:00,
2013-04-25 21:36:00,46.3,36.0,30.12,SSE,159,0.0,0.0,67,0.00,,,0.00,weatherlink.com 1.10,2013-04-26 04:36:00,
2013-04-25 21:51:00,45.5,36.0,30.12,SSE,159,0.0,0.0,69,0.00,,,0.00,weatherlink.com 1.10,2013-04-26 04:51:00,
2013-04-25 22:06:00,44.7,35.0,30.13,SSE,159,0.0,0.0,69,0.00,,,0.00,weatherlink.com 1.10,2013-04-26 05:06:00,
2013-04-25 22:21:00,44.0,36.0,30.13,SSE,159,0.0,0.0,73,0.00,,,0.00,weatherlink.com 1.10,2013-04-26 05:21:00,
2013-04-25 22:36:00,43.1,35.0,30.14,SSE,160,0.0,0.0,72,0.00,,,0.00,weatherlink.com 1.10,2013-04-26 05:36:00,
2013-04-25 22:51:00,42.8,34.0,30.14,SSE,160,0.0,0.0,72,0.00,,,0.00,weatherlink.com 1.10,2013-04-26 05:51:00,
2013-04-25 23:07:00,42.0,34.0,30.14,SSE,159,0.0,0.0,74,0.00,,,0.00,weatherlink.com 1.10,2013-04-26 06:07:00,
2013-04-25 23:21:00,41.5,35.0,30.13,SSE,154,0.0,0.0,77,0.00,,,0.00,weatherlink.com 1.10,2013-04-26 06:21:00,
2013-04-25 23:36:00,40.9,34.0,30.14,SSE,153,0.0,0.0,77,0.00,,,0.00,weatherlink.com 1.10,2013-04-26 06:36:00,
2013-04-25 23:51:00,40.2,34.0,30.14,SSE,153,0.0,0.0,77,0.00,,,0.00,weatherlink.com 1.10,2013-04-26 06:51:00,